sensor_id;sensor_type;location;lat;lon;timestamp;temperature;humidity
55036;DHT22;40936;53.008;6.556;2022-08-19T00:01:29;15.70;1.00
55036;DHT22;40936;53.008;6.556;2022-08-19T00:04:00;15.60;1.00
55036;DHT22;40936;53.008;6.556;2022-08-19T00:06:28;15.60;1.00
55036;DHT22;40936;53.008;6.556;2022-08-19T00:08:54;15.60;2.90
55036;DHT22;40936;53.008;6.556;2022-08-19T00:11:20;15.60;25.60
55036;DHT22;40936;53.008;6.556;2022-08-19T00:13:46;15.60;36.80
55036;DHT22;40936;53.008;6.556;2022-08-19T00:16:15;15.60;62.20
55036;DHT22;40936;53.008;6.556;2022-08-19T00:18:40;15.60;64.40
55036;DHT22;40936;53.008;6.556;2022-08-19T00:21:06;15.50;75.50
55036;DHT22;40936;53.008;6.556;2022-08-19T00:23:33;15.50;61.90
55036;DHT22;40936;53.008;6.556;2022-08-19T00:26:00;15.70;71.70
55036;DHT22;40936;53.008;6.556;2022-08-19T00:28:26;15.50;90.50
55036;DHT22;40936;53.008;6.556;2022-08-19T00:30:52;15.50;97.30
55036;DHT22;40936;53.008;6.556;2022-08-19T00:33:18;15.50;99.90
55036;DHT22;40936;53.008;6.556;2022-08-19T00:35:44;15.50;99.90
55036;DHT22;40936;53.008;6.556;2022-08-19T00:38:10;15.40;99.90
55036;DHT22;40936;53.008;6.556;2022-08-19T00:40:35;15.40;99.90
55036;DHT22;40936;53.008;6.556;2022-08-19T00:43:01;15.40;99.90
55036;DHT22;40936;53.008;6.556;2022-08-19T00:45:32;15.40;99.90
55036;DHT22;40936;53.008;6.556;2022-08-19T00:47:59;15.30;99.90
55036;DHT22;40936;53.008;6.556;2022-08-19T00:50:29;15.30;99.90
55036;DHT22;40936;53.008;6.556;2022-08-19T00:52:56;15.30;99.90
55036;DHT22;40936;53.008;6.556;2022-08-19T00:55:25;15.30;99.90
55036;DHT22;40936;53.008;6.556;2022-08-19T00:58:04;15.20;99.90
55036;DHT22;40936;53.008;6.556;2022-08-19T01:00:33;15.20;99.90
55036;DHT22;40936;53.008;6.556;2022-08-19T01:03:04;15.20;99.90
55036;DHT22;40936;53.008;6.556;2022-08-19T01:05:30;15.10;99.90
55036;DHT22;40936;53.008;6.556;2022-08-19T01:07:59;15.10;99.90
55036;DHT22;40936;53.008;6.556;2022-08-19T01:10:31;15.10;99.90
55036;DHT22;40936;53.008;6.556;2022-08-19T01:12:58;15.00;99.90
55036;DHT22;40936;53.008;6.556;2022-08-19T01:15:32;15.00;99.90
55036;DHT22;40936;53.008;6.556;2022-08-19T01:18:06;15.00;99.90
55036;DHT22;40936;53.008;6.556;2022-08-19T01:20:32;15.00;99.90
55036;DHT22;40936;53.008;6.556;2022-08-19T01:23:00;15.00;99.90
55036;DHT22;40936;53.008;6.556;2022-08-19T01:25:41;14.90;99.90
55036;DHT22;40936;53.008;6.556;2022-08-19T01:28:15;14.90;99.90
55036;DHT22;40936;53.008;6.556;2022-08-19T01:30:41;14.90;99.90
55036;DHT22;40936;53.008;6.556;2022-08-19T01:33:08;14.90;99.90
55036;DHT22;40936;53.008;6.556;2022-08-19T01:35:35;14.90;99.90
55036;DHT22;40936;53.008;6.556;2022-08-19T01:38:04;14.80;99.90
55036;DHT22;40936;53.008;6.556;2022-08-19T01:40:35;14.90;99.90
55036;DHT22;40936;53.008;6.556;2022-08-19T01:43:02;14.80;1.00
55036;DHT22;40936;53.008;6.556;2022-08-19T01:45:29;14.80;1.00
55036;DHT22;40936;53.008;6.556;2022-08-19T01:47:56;14.80;1.00
55036;DHT22;40936;53.008;6.556;2022-08-19T01:50:22;14.80;1.00
55036;DHT22;40936;53.008;6.556;2022-08-19T01:52:47;14.80;1.00
55036;DHT22;40936;53.008;6.556;2022-08-19T01:55:17;14.70;1.00
55036;DHT22;40936;53.008;6.556;2022-08-19T01:57:48;14.80;1.00
55036;DHT22;40936;53.008;6.556;2022-08-19T02:00:18;14.80;1.00
55036;DHT22;40936;53.008;6.556;2022-08-19T02:02:43;14.80;99.90
55036;DHT22;40936;53.008;6.556;2022-08-19T02:05:10;14.80;99.90
55036;DHT22;40936;53.008;6.556;2022-08-19T02:07:36;14.80;99.90
55036;DHT22;40936;53.008;6.556;2022-08-19T02:10:08;14.80;99.90
55036;DHT22;40936;53.008;6.556;2022-08-19T02:12:35;14.80;85.90
55036;DHT22;40936;53.008;6.556;2022-08-19T02:15:01;14.80;68.80
55036;DHT22;40936;53.008;6.556;2022-08-19T02:17:28;14.80;51.30
55036;DHT22;40936;53.008;6.556;2022-08-19T02:19:55;14.80;34.60
55036;DHT22;40936;53.008;6.556;2022-08-19T02:22:22;14.70;16.70
55036;DHT22;40936;53.008;6.556;2022-08-19T02:24:48;14.80;99.90
55036;DHT22;40936;53.008;6.556;2022-08-19T02:27:14;14.80;99.90
55036;DHT22;40936;53.008;6.556;2022-08-19T02:29:40;14.90;99.90
55036;DHT22;40936;53.008;6.556;2022-08-19T02:32:07;15.90;99.90
55036;DHT22;40936;53.008;6.556;2022-08-19T02:34:33;14.90;75.00
55036;DHT22;40936;53.008;6.556;2022-08-19T02:36:59;14.90;99.90
55036;DHT22;40936;53.008;6.556;2022-08-19T02:39:25;14.80;99.90
55036;DHT22;40936;53.008;6.556;2022-08-19T02:41:51;14.90;99.90
55036;DHT22;40936;53.008;6.556;2022-08-19T02:44:17;15.10;99.90
55036;DHT22;40936;53.008;6.556;2022-08-19T02:46:46;14.90;99.90
55036;DHT22;40936;53.008;6.556;2022-08-19T02:49:12;14.90;99.90
55036;DHT22;40936;53.008;6.556;2022-08-19T02:51:40;14.90;99.90
55036;DHT22;40936;53.008;6.556;2022-08-19T02:54:08;14.90;99.90
55036;DHT22;40936;53.008;6.556;2022-08-19T02:56:35;14.90;99.90
55036;DHT22;40936;53.008;6.556;2022-08-19T02:59:02;14.90;1.00
55036;DHT22;40936;53.008;6.556;2022-08-19T03:01:30;14.80;99.90
55036;DHT22;40936;53.008;6.556;2022-08-19T03:03:58;14.80;99.90
55036;DHT22;40936;53.008;6.556;2022-08-19T03:06:25;14.80;99.90
55036;DHT22;40936;53.008;6.556;2022-08-19T03:08:51;14.80;99.90
55036;DHT22;40936;53.008;6.556;2022-08-19T03:11:26;15.00;99.90
55036;DHT22;40936;53.008;6.556;2022-08-19T03:13:52;14.90;99.90
55036;DHT22;40936;53.008;6.556;2022-08-19T03:16:21;15.10;99.90
55036;DHT22;40936;53.008;6.556;2022-08-19T03:18:48;14.80;99.90
55036;DHT22;40936;53.008;6.556;2022-08-19T03:21:22;14.80;69.00
55036;DHT22;40936;53.008;6.556;2022-08-19T03:23:49;14.80;26.10
55036;DHT22;40936;53.008;6.556;2022-08-19T03:26:15;14.80;1.00
55036;DHT22;40936;53.008;6.556;2022-08-19T03:28:42;14.80;1.00
55036;DHT22;40936;53.008;6.556;2022-08-19T03:31:11;14.70;99.90
55036;DHT22;40936;53.008;6.556;2022-08-19T03:33:38;14.70;99.90
55036;DHT22;40936;53.008;6.556;2022-08-19T03:36:10;14.80;1.00
55036;DHT22;40936;53.008;6.556;2022-08-19T03:38:42;14.80;36.80
55036;DHT22;40936;53.008;6.556;2022-08-19T03:41:10;14.80;42.70
55036;DHT22;40936;53.008;6.556;2022-08-19T03:43:37;14.80;82.90
55036;DHT22;40936;53.008;6.556;2022-08-19T03:46:24;14.80;99.90
55036;DHT22;40936;53.008;6.556;2022-08-19T03:48:52;14.80;99.90
55036;DHT22;40936;53.008;6.556;2022-08-19T03:51:25;14.90;99.90
55036;DHT22;40936;53.008;6.556;2022-08-19T03:53:52;14.90;1.00
55036;DHT22;40936;53.008;6.556;2022-08-19T03:56:19;14.80;41.80
55036;DHT22;40936;53.008;6.556;2022-08-19T03:58:45;14.80;87.50
55036;DHT22;40936;53.008;6.556;2022-08-19T04:01:17;14.80;61.30
55036;DHT22;40936;53.008;6.556;2022-08-19T04:03:44;14.70;1.00
55036;DHT22;40936;53.008;6.556;2022-08-19T04:06:16;14.70;1.00
55036;DHT22;40936;53.008;6.556;2022-08-19T04:08:44;14.70;99.90
55036;DHT22;40936;53.008;6.556;2022-08-19T04:11:12;14.70;99.90
55036;DHT22;40936;53.008;6.556;2022-08-19T04:13:38;14.70;99.90
55036;DHT22;40936;53.008;6.556;2022-08-19T04:16:04;14.70;99.90
55036;DHT22;40936;53.008;6.556;2022-08-19T04:18:31;14.70;99.90
55036;DHT22;40936;53.008;6.556;2022-08-19T04:20:58;14.70;99.90
55036;DHT22;40936;53.008;6.556;2022-08-19T04:23:24;14.80;99.90
55036;DHT22;40936;53.008;6.556;2022-08-19T04:25:49;14.60;99.90
55036;DHT22;40936;53.008;6.556;2022-08-19T04:28:15;14.70;99.90
55036;DHT22;40936;53.008;6.556;2022-08-19T04:30:46;14.70;99.90
55036;DHT22;40936;53.008;6.556;2022-08-19T04:33:14;14.70;99.90
55036;DHT22;40936;53.008;6.556;2022-08-19T04:35:44;14.70;47.60
55036;DHT22;40936;53.008;6.556;2022-08-19T04:38:11;14.70;19.70
55036;DHT22;40936;53.008;6.556;2022-08-19T04:40:42;14.70;90.60
55036;DHT22;40936;53.008;6.556;2022-08-19T04:43:27;14.70;99.90
55036;DHT22;40936;53.008;6.556;2022-08-19T04:45:53;14.80;99.90
55036;DHT22;40936;53.008;6.556;2022-08-19T04:48:19;14.70;99.90
55036;DHT22;40936;53.008;6.556;2022-08-19T04:50:52;14.80;99.90
55036;DHT22;40936;53.008;6.556;2022-08-19T04:55:54;14.90;99.90
55036;DHT22;40936;53.008;6.556;2022-08-19T04:58:20;14.80;99.90
55036;DHT22;40936;53.008;6.556;2022-08-19T05:00:46;14.80;99.90
55036;DHT22;40936;53.008;6.556;2022-08-19T05:03:11;14.80;99.90
55036;DHT22;40936;53.008;6.556;2022-08-19T05:05:40;14.70;99.90
55036;DHT22;40936;53.008;6.556;2022-08-19T05:08:06;14.70;99.90
55036;DHT22;40936;53.008;6.556;2022-08-19T05:10:35;14.80;99.90
55036;DHT22;40936;53.008;6.556;2022-08-19T05:13:01;14.80;76.40
55036;DHT22;40936;53.008;6.556;2022-08-19T05:15:27;14.70;1.00
55036;DHT22;40936;53.008;6.556;2022-08-19T05:17:53;14.70;1.00
55036;DHT22;40936;53.008;6.556;2022-08-19T05:20:38;14.70;1.00
55036;DHT22;40936;53.008;6.556;2022-08-19T05:23:22;14.80;99.90
55036;DHT22;40936;53.008;6.556;2022-08-19T05:25:49;14.80;99.90
55036;DHT22;40936;53.008;6.556;2022-08-19T05:28:15;14.90;99.90
55036;DHT22;40936;53.008;6.556;2022-08-19T05:30:41;15.10;99.90
55036;DHT22;40936;53.008;6.556;2022-08-19T05:33:08;15.10;99.90
55036;DHT22;40936;53.008;6.556;2022-08-19T05:35:37;15.10;99.90
55036;DHT22;40936;53.008;6.556;2022-08-19T05:38:03;15.20;99.90
55036;DHT22;40936;53.008;6.556;2022-08-19T05:40:29;15.30;18.30
55036;DHT22;40936;53.008;6.556;2022-08-19T05:42:54;15.30;99.90
55036;DHT22;40936;53.008;6.556;2022-08-19T05:45:20;15.60;1.00
55036;DHT22;40936;53.008;6.556;2022-08-19T05:47:47;15.60;29.80
55036;DHT22;40936;53.008;6.556;2022-08-19T05:50:13;15.60;48.60
55036;DHT22;40936;53.008;6.556;2022-08-19T05:52:39;15.70;30.00
55036;DHT22;40936;53.008;6.556;2022-08-19T05:55:05;15.70;64.10
55036;DHT22;40936;53.008;6.556;2022-08-19T05:57:31;15.80;99.90
55036;DHT22;40936;53.008;6.556;2022-08-19T05:59:57;15.90;99.90
55036;DHT22;40936;53.008;6.556;2022-08-19T06:02:29;16.00;99.90
55036;DHT22;40936;53.008;6.556;2022-08-19T06:04:55;16.10;99.90
55036;DHT22;40936;53.008;6.556;2022-08-19T06:07:21;16.20;99.90
55036;DHT22;40936;53.008;6.556;2022-08-19T06:09:47;16.20;99.90
55036;DHT22;40936;53.008;6.556;2022-08-19T06:12:13;16.30;99.90
55036;DHT22;40936;53.008;6.556;2022-08-19T06:14:38;16.30;99.90
55036;DHT22;40936;53.008;6.556;2022-08-19T06:17:04;16.40;99.90
55036;DHT22;40936;53.008;6.556;2022-08-19T06:19:30;16.50;99.90
55036;DHT22;40936;53.008;6.556;2022-08-19T06:21:57;16.60;99.90
55036;DHT22;40936;53.008;6.556;2022-08-19T06:24:25;16.70;99.90
55036;DHT22;40936;53.008;6.556;2022-08-19T06:26:53;16.60;99.90
55036;DHT22;40936;53.008;6.556;2022-08-19T06:29:24;16.80;99.90
55036;DHT22;40936;53.008;6.556;2022-08-19T06:31:55;16.90;99.90
55036;DHT22;40936;53.008;6.556;2022-08-19T06:34:22;16.90;99.90
55036;DHT22;40936;53.008;6.556;2022-08-19T06:36:50;16.90;99.90
55036;DHT22;40936;53.008;6.556;2022-08-19T06:39:21;16.90;99.90
55036;DHT22;40936;53.008;6.556;2022-08-19T06:41:49;17.00;99.90
55036;DHT22;40936;53.008;6.556;2022-08-19T06:44:15;17.00;99.90
55036;DHT22;40936;53.008;6.556;2022-08-19T06:46:41;17.10;68.70
55036;DHT22;40936;53.008;6.556;2022-08-19T06:49:07;17.20;1.00
55036;DHT22;40936;53.008;6.556;2022-08-19T06:51:37;17.20;1.00
55036;DHT22;40936;53.008;6.556;2022-08-19T06:54:04;17.30;99.90
55036;DHT22;40936;53.008;6.556;2022-08-19T06:56:31;18.10;99.90
55036;DHT22;40936;53.008;6.556;2022-08-19T06:59:10;17.60;99.90
55036;DHT22;40936;53.008;6.556;2022-08-19T07:01:49;17.60;99.90
55036;DHT22;40936;53.008;6.556;2022-08-19T07:04:16;17.70;63.10
55036;DHT22;40936;53.008;6.556;2022-08-19T07:06:43;17.90;1.00
55036;DHT22;40936;53.008;6.556;2022-08-19T07:09:11;18.00;99.90
55036;DHT22;40936;53.008;6.556;2022-08-19T07:11:36;18.10;73.40
55036;DHT22;40936;53.008;6.556;2022-08-19T07:14:03;18.30;99.90
55036;DHT22;40936;53.008;6.556;2022-08-19T07:16:29;18.40;99.90
55036;DHT22;40936;53.008;6.556;2022-08-19T07:18:55;18.50;99.90
55036;DHT22;40936;53.008;6.556;2022-08-19T07:21:27;18.60;1.00
55036;DHT22;40936;53.008;6.556;2022-08-19T07:23:56;18.70;1.00
55036;DHT22;40936;53.008;6.556;2022-08-19T07:26:29;18.80;1.00
55036;DHT22;40936;53.008;6.556;2022-08-19T07:28:56;18.90;1.00
55036;DHT22;40936;53.008;6.556;2022-08-19T07:31:25;19.50;99.90
55036;DHT22;40936;53.008;6.556;2022-08-19T07:33:53;20.90;1.00
55036;DHT22;40936;53.008;6.556;2022-08-19T07:36:26;22.50;99.90
55036;DHT22;40936;53.008;6.556;2022-08-19T07:38:58;23.80;1.00
55036;DHT22;40936;53.008;6.556;2022-08-19T07:41:26;25.40;1.00
55036;DHT22;40936;53.008;6.556;2022-08-19T07:43:54;26.10;99.90
55036;DHT22;40936;53.008;6.556;2022-08-19T07:46:20;26.40;99.90
55036;DHT22;40936;53.008;6.556;2022-08-19T07:48:47;27.30;99.90
55036;DHT22;40936;53.008;6.556;2022-08-19T07:51:16;28.40;99.90
55036;DHT22;40936;53.008;6.556;2022-08-19T07:53:42;29.30;99.90
55036;DHT22;40936;53.008;6.556;2022-08-19T07:56:10;29.90;99.90
55036;DHT22;40936;53.008;6.556;2022-08-19T07:58:39;30.60;92.70
55036;DHT22;40936;53.008;6.556;2022-08-19T08:01:07;31.00;36.30
55036;DHT22;40936;53.008;6.556;2022-08-19T08:03:33;30.70;46.80
55036;DHT22;40936;53.008;6.556;2022-08-19T08:06:17;30.30;28.90
55036;DHT22;40936;53.008;6.556;2022-08-19T08:09:25;30.70;44.20
55036;DHT22;40936;53.008;6.556;2022-08-19T08:11:55;30.70;22.10
55036;DHT22;40936;53.008;6.556;2022-08-19T08:14:46;30.70;22.60
55036;DHT22;40936;53.008;6.556;2022-08-19T08:17:16;31.00;20.00
55036;DHT22;40936;53.008;6.556;2022-08-19T08:19:44;31.50;18.50
55036;DHT22;40936;53.008;6.556;2022-08-19T08:22:13;31.30;1.00
55036;DHT22;40936;53.008;6.556;2022-08-19T08:25:17;32.50;1.10
55036;DHT22;40936;53.008;6.556;2022-08-19T08:27:45;32.30;1.00
55036;DHT22;40936;53.008;6.556;2022-08-19T08:30:15;33.00;1.00
55036;DHT22;40936;53.008;6.556;2022-08-19T08:32:41;33.70;1.00
55036;DHT22;40936;53.008;6.556;2022-08-19T08:35:11;34.10;1.00
55036;DHT22;40936;53.008;6.556;2022-08-19T08:37:37;34.20;1.00
55036;DHT22;40936;53.008;6.556;2022-08-19T08:40:21;34.70;1.00
55036;DHT22;40936;53.008;6.556;2022-08-19T08:46:16;33.50;1.00
55036;DHT22;40936;53.008;6.556;2022-08-19T08:51:44;31.60;1.00
55036;DHT22;40936;53.008;6.556;2022-08-19T08:54:14;31.80;1.00
55036;DHT22;40936;53.008;6.556;2022-08-19T08:56:44;32.90;1.00
55036;DHT22;40936;53.008;6.556;2022-08-19T08:59:21;33.20;1.00
55036;DHT22;40936;53.008;6.556;2022-08-19T09:01:49;33.70;1.00
55036;DHT22;40936;53.008;6.556;2022-08-19T09:04:15;34.10;1.00
55036;DHT22;40936;53.008;6.556;2022-08-19T09:06:50;35.00;1.00
55036;DHT22;40936;53.008;6.556;2022-08-19T09:09:52;35.10;1.00
55036;DHT22;40936;53.008;6.556;2022-08-19T09:12:20;33.90;1.00
55036;DHT22;40936;53.008;6.556;2022-08-19T09:15:06;34.60;1.00
55036;DHT22;40936;53.008;6.556;2022-08-19T09:17:33;35.10;1.00
55036;DHT22;40936;53.008;6.556;2022-08-19T09:22:38;36.30;1.00
55036;DHT22;40936;53.008;6.556;2022-08-19T09:25:07;36.40;1.00
55036;DHT22;40936;53.008;6.556;2022-08-19T09:27:33;36.30;1.00
55036;DHT22;40936;53.008;6.556;2022-08-19T09:29:59;35.90;1.00
55036;DHT22;40936;53.008;6.556;2022-08-19T09:32:25;36.30;1.00
55036;DHT22;40936;53.008;6.556;2022-08-19T09:34:52;36.70;1.00
55036;DHT22;40936;53.008;6.556;2022-08-19T09:37:20;36.70;1.00
55036;DHT22;40936;53.008;6.556;2022-08-19T09:39:47;37.00;1.00
55036;DHT22;40936;53.008;6.556;2022-08-19T09:42:13;37.50;1.00
55036;DHT22;40936;53.008;6.556;2022-08-19T09:44:42;37.60;1.00
55036;DHT22;40936;53.008;6.556;2022-08-19T09:47:09;38.00;1.00
55036;DHT22;40936;53.008;6.556;2022-08-19T09:49:36;37.50;1.00
55036;DHT22;40936;53.008;6.556;2022-08-19T09:52:03;38.00;1.00
55036;DHT22;40936;53.008;6.556;2022-08-19T09:54:29;38.40;1.00
55036;DHT22;40936;53.008;6.556;2022-08-19T09:56:55;37.50;1.00
55036;DHT22;40936;53.008;6.556;2022-08-19T09:59:23;38.50;1.00
55036;DHT22;40936;53.008;6.556;2022-08-19T10:01:49;39.20;1.00
55036;DHT22;40936;53.008;6.556;2022-08-19T10:04:16;38.70;1.00
55036;DHT22;40936;53.008;6.556;2022-08-19T10:06:42;39.20;1.00
55036;DHT22;40936;53.008;6.556;2022-08-19T10:09:10;39.30;1.00
55036;DHT22;40936;53.008;6.556;2022-08-19T10:11:38;39.30;99.90
55036;DHT22;40936;53.008;6.556;2022-08-19T10:14:05;39.50;1.00
55036;DHT22;40936;53.008;6.556;2022-08-19T10:16:35;39.30;99.90
55036;DHT22;40936;53.008;6.556;2022-08-19T10:19:01;39.70;99.90
55036;DHT22;40936;53.008;6.556;2022-08-19T10:21:30;39.60;99.90
55036;DHT22;40936;53.008;6.556;2022-08-19T10:23:58;39.10;99.90
55036;DHT22;40936;53.008;6.556;2022-08-19T10:26:31;37.80;99.90
55036;DHT22;40936;53.008;6.556;2022-08-19T10:28:57;37.90;99.90
55036;DHT22;40936;53.008;6.556;2022-08-19T10:31:29;38.50;99.90
55036;DHT22;40936;53.008;6.556;2022-08-19T10:33:55;38.40;99.90
55036;DHT22;40936;53.008;6.556;2022-08-19T10:36:35;38.80;99.90
55036;DHT22;40936;53.008;6.556;2022-08-19T10:39:06;38.20;99.90
55036;DHT22;40936;53.008;6.556;2022-08-19T10:41:35;38.60;99.90
55036;DHT22;40936;53.008;6.556;2022-08-19T10:44:04;38.90;99.90
55036;DHT22;40936;53.008;6.556;2022-08-19T10:46:32;39.30;99.90
55036;DHT22;40936;53.008;6.556;2022-08-19T10:49:00;39.60;99.90
55036;DHT22;40936;53.008;6.556;2022-08-19T10:51:26;40.00;99.90
55036;DHT22;40936;53.008;6.556;2022-08-19T10:54:10;39.60;99.90
55036;DHT22;40936;53.008;6.556;2022-08-19T10:56:36;39.80;99.90
55036;DHT22;40936;53.008;6.556;2022-08-19T10:59:20;38.30;99.90
55036;DHT22;40936;53.008;6.556;2022-08-19T11:01:47;37.90;99.90
55036;DHT22;40936;53.008;6.556;2022-08-19T11:04:13;37.30;99.90
55036;DHT22;40936;53.008;6.556;2022-08-19T11:06:41;36.20;99.90
55036;DHT22;40936;53.008;6.556;2022-08-19T11:09:09;35.30;99.90
55036;DHT22;40936;53.008;6.556;2022-08-19T11:11:37;35.20;99.90
55036;DHT22;40936;53.008;6.556;2022-08-19T11:14:12;35.20;99.90
55036;DHT22;40936;53.008;6.556;2022-08-19T11:16:40;35.60;99.90
55036;DHT22;40936;53.008;6.556;2022-08-19T11:19:07;35.50;99.90
55036;DHT22;40936;53.008;6.556;2022-08-19T11:21:39;35.30;99.90
55036;DHT22;40936;53.008;6.556;2022-08-19T11:24:11;34.80;99.90
55036;DHT22;40936;53.008;6.556;2022-08-19T11:26:39;34.30;99.90
55036;DHT22;40936;53.008;6.556;2022-08-19T11:29:07;35.10;99.90
55036;DHT22;40936;53.008;6.556;2022-08-19T11:31:37;35.40;99.90
55036;DHT22;40936;53.008;6.556;2022-08-19T11:34:06;34.80;99.90
55036;DHT22;40936;53.008;6.556;2022-08-19T11:36:34;33.90;99.90
55036;DHT22;40936;53.008;6.556;2022-08-19T11:39:01;33.80;99.90
55036;DHT22;40936;53.008;6.556;2022-08-19T11:41:26;34.50;99.90
55036;DHT22;40936;53.008;6.556;2022-08-19T11:43:53;35.10;99.90
55036;DHT22;40936;53.008;6.556;2022-08-19T11:46:22;35.20;99.90
55036;DHT22;40936;53.008;6.556;2022-08-19T11:48:48;36.00;99.90
55036;DHT22;40936;53.008;6.556;2022-08-19T11:51:18;36.30;99.90
55036;DHT22;40936;53.008;6.556;2022-08-19T11:53:45;36.10;99.90
55036;DHT22;40936;53.008;6.556;2022-08-19T11:56:11;35.60;99.90
55036;DHT22;40936;53.008;6.556;2022-08-19T11:58:38;33.70;99.90
55036;DHT22;40936;53.008;6.556;2022-08-19T12:01:15;33.30;99.90
55036;DHT22;40936;53.008;6.556;2022-08-19T12:03:42;33.30;99.90
55036;DHT22;40936;53.008;6.556;2022-08-19T12:06:11;33.70;99.90
55036;DHT22;40936;53.008;6.556;2022-08-19T12:08:41;33.30;99.90
55036;DHT22;40936;53.008;6.556;2022-08-19T12:11:09;33.10;99.90
55036;DHT22;40936;53.008;6.556;2022-08-19T12:13:35;33.10;99.90
55036;DHT22;40936;53.008;6.556;2022-08-19T12:16:11;32.70;99.90
55036;DHT22;40936;53.008;6.556;2022-08-19T12:18:41;31.60;99.90
55036;DHT22;40936;53.008;6.556;2022-08-19T12:21:09;31.70;99.90
55036;DHT22;40936;53.008;6.556;2022-08-19T12:23:36;31.80;99.90
55036;DHT22;40936;53.008;6.556;2022-08-19T12:26:03;31.80;99.90
55036;DHT22;40936;53.008;6.556;2022-08-19T12:28:29;31.80;99.90
55036;DHT22;40936;53.008;6.556;2022-08-19T12:30:56;31.80;99.90
55036;DHT22;40936;53.008;6.556;2022-08-19T12:33:22;31.80;99.90
55036;DHT22;40936;53.008;6.556;2022-08-19T12:35:51;32.20;99.90
55036;DHT22;40936;53.008;6.556;2022-08-19T12:38:18;32.00;99.90
55036;DHT22;40936;53.008;6.556;2022-08-19T12:40:47;31.90;99.90
55036;DHT22;40936;53.008;6.556;2022-08-19T12:43:14;31.60;99.90
55036;DHT22;40936;53.008;6.556;2022-08-19T12:45:41;31.20;99.90
55036;DHT22;40936;53.008;6.556;2022-08-19T12:48:08;31.20;99.90
55036;DHT22;40936;53.008;6.556;2022-08-19T12:50:34;31.10;99.90
55036;DHT22;40936;53.008;6.556;2022-08-19T12:53:00;30.70;99.90
55036;DHT22;40936;53.008;6.556;2022-08-19T12:55:26;30.40;99.90
55036;DHT22;40936;53.008;6.556;2022-08-19T12:57:53;30.20;99.90
55036;DHT22;40936;53.008;6.556;2022-08-19T13:00:21;30.10;99.90
55036;DHT22;40936;53.008;6.556;2022-08-19T13:02:49;29.80;99.90
55036;DHT22;40936;53.008;6.556;2022-08-19T13:05:21;29.70;99.90
55036;DHT22;40936;53.008;6.556;2022-08-19T13:07:49;29.90;99.90
55036;DHT22;40936;53.008;6.556;2022-08-19T13:10:18;29.80;99.90
55036;DHT22;40936;53.008;6.556;2022-08-19T13:12:47;30.00;99.90
55036;DHT22;40936;53.008;6.556;2022-08-19T13:15:14;30.10;99.90
55036;DHT22;40936;53.008;6.556;2022-08-19T13:17:40;29.90;99.90
55036;DHT22;40936;53.008;6.556;2022-08-19T13:20:08;30.10;1.00
55036;DHT22;40936;53.008;6.556;2022-08-19T13:22:34;30.10;1.00
55036;DHT22;40936;53.008;6.556;2022-08-19T13:25:04;30.10;1.00
55036;DHT22;40936;53.008;6.556;2022-08-19T13:27:30;30.10;1.00
55036;DHT22;40936;53.008;6.556;2022-08-19T13:29:56;29.80;1.00
55036;DHT22;40936;53.008;6.556;2022-08-19T13:32:41;29.80;1.00
55036;DHT22;40936;53.008;6.556;2022-08-19T13:35:25;30.00;1.00
55036;DHT22;40936;53.008;6.556;2022-08-19T13:37:50;30.10;1.00
55036;DHT22;40936;53.008;6.556;2022-08-19T13:40:18;30.00;1.00
55036;DHT22;40936;53.008;6.556;2022-08-19T13:42:47;29.70;1.00
55036;DHT22;40936;53.008;6.556;2022-08-19T13:45:15;29.30;1.00
55036;DHT22;40936;53.008;6.556;2022-08-19T13:47:41;28.80;1.00
55036;DHT22;40936;53.008;6.556;2022-08-19T13:50:11;28.40;1.00
55036;DHT22;40936;53.008;6.556;2022-08-19T13:52:38;28.00;1.00
55036;DHT22;40936;53.008;6.556;2022-08-19T13:55:05;27.70;1.00
55036;DHT22;40936;53.008;6.556;2022-08-19T13:57:31;27.50;1.00
55036;DHT22;40936;53.008;6.556;2022-08-19T13:59:57;27.40;1.00
55036;DHT22;40936;53.008;6.556;2022-08-19T14:02:24;27.20;1.00
55036;DHT22;40936;53.008;6.556;2022-08-19T14:04:49;27.00;1.00
55036;DHT22;40936;53.008;6.556;2022-08-19T14:07:15;26.90;1.00
55036;DHT22;40936;53.008;6.556;2022-08-19T14:09:41;26.70;1.00
55036;DHT22;40936;53.008;6.556;2022-08-19T14:12:07;26.60;1.00
55036;DHT22;40936;53.008;6.556;2022-08-19T14:14:37;26.60;1.00
55036;DHT22;40936;53.008;6.556;2022-08-19T14:17:07;26.60;1.00
55036;DHT22;40936;53.008;6.556;2022-08-19T14:19:35;26.70;1.00
55036;DHT22;40936;53.008;6.556;2022-08-19T14:22:00;27.00;1.00
55036;DHT22;40936;53.008;6.556;2022-08-19T14:24:27;27.40;1.00
55036;DHT22;40936;53.008;6.556;2022-08-19T14:26:52;27.80;1.00
55036;DHT22;40936;53.008;6.556;2022-08-19T14:29:18;28.10;1.00
55036;DHT22;40936;53.008;6.556;2022-08-19T14:31:44;28.20;1.00
55036;DHT22;40936;53.008;6.556;2022-08-19T14:34:10;28.40;1.00
55036;DHT22;40936;53.008;6.556;2022-08-19T14:36:38;28.40;1.00
55036;DHT22;40936;53.008;6.556;2022-08-19T14:39:04;28.20;1.00
55036;DHT22;40936;53.008;6.556;2022-08-19T14:41:30;28.00;1.00
55036;DHT22;40936;53.008;6.556;2022-08-19T14:43:56;27.80;1.00
55036;DHT22;40936;53.008;6.556;2022-08-19T14:46:24;27.70;1.00
55036;DHT22;40936;53.008;6.556;2022-08-19T14:48:51;27.60;1.00
55036;DHT22;40936;53.008;6.556;2022-08-19T14:51:18;27.60;1.00
55036;DHT22;40936;53.008;6.556;2022-08-19T14:53:45;27.60;1.00
55036;DHT22;40936;53.008;6.556;2022-08-19T14:56:15;27.40;1.00
55036;DHT22;40936;53.008;6.556;2022-08-19T14:58:42;27.30;1.00
55036;DHT22;40936;53.008;6.556;2022-08-19T15:01:09;27.20;1.00
55036;DHT22;40936;53.008;6.556;2022-08-19T15:03:37;27.20;1.00
55036;DHT22;40936;53.008;6.556;2022-08-19T15:06:04;27.20;1.00
55036;DHT22;40936;53.008;6.556;2022-08-19T15:08:30;27.20;1.00
55036;DHT22;40936;53.008;6.556;2022-08-19T15:10:58;27.20;1.00
55036;DHT22;40936;53.008;6.556;2022-08-19T15:13:24;27.40;1.00
55036;DHT22;40936;53.008;6.556;2022-08-19T15:15:52;27.50;1.00
55036;DHT22;40936;53.008;6.556;2022-08-19T15:18:19;27.60;1.00
55036;DHT22;40936;53.008;6.556;2022-08-19T15:20:46;27.40;1.00
55036;DHT22;40936;53.008;6.556;2022-08-19T15:23:14;27.30;1.00
55036;DHT22;40936;53.008;6.556;2022-08-19T15:25:40;27.20;1.00
55036;DHT22;40936;53.008;6.556;2022-08-19T15:28:07;27.00;1.00
55036;DHT22;40936;53.008;6.556;2022-08-19T15:30:36;26.90;1.00
55036;DHT22;40936;53.008;6.556;2022-08-19T15:33:03;26.70;1.00
55036;DHT22;40936;53.008;6.556;2022-08-19T15:35:28;26.60;1.00
55036;DHT22;40936;53.008;6.556;2022-08-19T15:37:54;26.50;1.00
55036;DHT22;40936;53.008;6.556;2022-08-19T15:40:22;26.50;1.00
55036;DHT22;40936;53.008;6.556;2022-08-19T15:42:48;26.40;1.00
55036;DHT22;40936;53.008;6.556;2022-08-19T15:45:15;26.50;1.00
55036;DHT22;40936;53.008;6.556;2022-08-19T15:47:41;26.50;1.00
55036;DHT22;40936;53.008;6.556;2022-08-19T15:50:17;26.40;1.00
55036;DHT22;40936;53.008;6.556;2022-08-19T15:52:50;26.50;1.00
55036;DHT22;40936;53.008;6.556;2022-08-19T15:55:23;26.50;1.00
55036;DHT22;40936;53.008;6.556;2022-08-19T15:57:49;26.50;1.00